sensor_id;sensor_type;location;lat;lon;timestamp;temperature;humidity
58983;DHT22;44771;49.982;8.560;2023-11-19T00:00:36;7.30;99.90
58983;DHT22;44771;49.982;8.560;2023-11-19T00:05:38;7.30;99.90
58983;DHT22;44771;49.982;8.560;2023-11-19T00:10:41;7.30;99.90
58983;DHT22;44771;49.982;8.560;2023-11-19T00:15:43;7.30;99.90
58983;DHT22;44771;49.982;8.560;2023-11-19T00:20:45;7.30;99.90
58983;DHT22;44771;49.982;8.560;2023-11-19T00:25:51;7.30;99.90
58983;DHT22;44771;49.982;8.560;2023-11-19T00:30:52;7.30;99.90
58983;DHT22;44771;49.982;8.560;2023-11-19T00:35:54;7.30;99.90
58983;DHT22;44771;49.982;8.560;2023-11-19T00:40:57;7.40;99.90
58983;DHT22;44771;49.982;8.560;2023-11-19T00:45:59;7.40;99.90
58983;DHT22;44771;49.982;8.560;2023-11-19T00:51:01;7.40;99.90
58983;DHT22;44771;49.982;8.560;2023-11-19T00:56:05;7.40;99.90
58983;DHT22;44771;49.982;8.560;2023-11-19T01:01:07;7.40;99.90
58983;DHT22;44771;49.982;8.560;2023-11-19T01:06:09;7.40;99.90
58983;DHT22;44771;49.982;8.560;2023-11-19T01:11:20;7.40;99.90
58983;DHT22;44771;49.982;8.560;2023-11-19T01:16:22;7.50;99.90
58983;DHT22;44771;49.982;8.560;2023-11-19T01:21:24;7.50;99.90
58983;DHT22;44771;49.982;8.560;2023-11-19T01:26:29;7.50;99.90
58983;DHT22;44771;49.982;8.560;2023-11-19T01:31:31;7.50;99.90
58983;DHT22;44771;49.982;8.560;2023-11-19T01:36:33;7.50;99.90
58983;DHT22;44771;49.982;8.560;2023-11-19T01:41:38;7.50;99.90
58983;DHT22;44771;49.982;8.560;2023-11-19T01:46:42;7.60;99.90
58983;DHT22;44771;49.982;8.560;2023-11-19T01:51:44;7.60;99.90
58983;DHT22;44771;49.982;8.560;2023-11-19T01:56:53;7.70;99.90
58983;DHT22;44771;49.982;8.560;2023-11-19T02:01:55;7.80;99.90
58983;DHT22;44771;49.982;8.560;2023-11-19T02:07:00;7.80;99.90
58983;DHT22;44771;49.982;8.560;2023-11-19T02:12:04;7.80;99.90
58983;DHT22;44771;49.982;8.560;2023-11-19T02:17:05;7.90;99.90
58983;DHT22;44771;49.982;8.560;2023-11-19T02:22:09;7.90;99.90
58983;DHT22;44771;49.982;8.560;2023-11-19T02:27:18;7.90;99.90
58983;DHT22;44771;49.982;8.560;2023-11-19T02:32:27;8.00;99.90
58983;DHT22;44771;49.982;8.560;2023-11-19T02:37:29;8.00;99.90
58983;DHT22;44771;49.982;8.560;2023-11-19T02:42:31;8.00;99.90
58983;DHT22;44771;49.982;8.560;2023-11-19T02:47:34;8.00;99.90
58983;DHT22;44771;49.982;8.560;2023-11-19T02:52:36;8.00;99.90
58983;DHT22;44771;49.982;8.560;2023-11-19T02:57:38;8.10;99.90
58983;DHT22;44771;49.982;8.560;2023-11-19T03:02:41;8.20;99.90
58983;DHT22;44771;49.982;8.560;2023-11-19T03:07:43;8.20;99.90
58983;DHT22;44771;49.982;8.560;2023-11-19T03:12:45;8.20;99.90
58983;DHT22;44771;49.982;8.560;2023-11-19T03:17:50;8.30;99.90
58983;DHT22;44771;49.982;8.560;2023-11-19T03:22:52;8.20;99.90
58983;DHT22;44771;49.982;8.560;2023-11-19T03:27:54;8.20;99.90
58983;DHT22;44771;49.982;8.560;2023-11-19T03:32:57;8.30;99.90
58983;DHT22;44771;49.982;8.560;2023-11-19T03:37:59;8.30;99.90
58983;DHT22;44771;49.982;8.560;2023-11-19T03:43:01;8.40;99.90
58983;DHT22;44771;49.982;8.560;2023-11-19T03:48:04;8.40;99.90
58983;DHT22;44771;49.982;8.560;2023-11-19T03:53:06;8.50;99.90
58983;DHT22;44771;49.982;8.560;2023-11-19T03:58:08;8.50;99.90
58983;DHT22;44771;49.982;8.560;2023-11-19T04:03:11;8.50;99.90
58983;DHT22;44771;49.982;8.560;2023-11-19T04:08:13;8.50;99.90
58983;DHT22;44771;49.982;8.560;2023-11-19T04:13:15;8.50;99.90
58983;DHT22;44771;49.982;8.560;2023-11-19T04:18:20;8.50;99.90
58983;DHT22;44771;49.982;8.560;2023-11-19T04:23:21;8.60;99.90
58983;DHT22;44771;49.982;8.560;2023-11-19T04:28:23;8.50;99.90
58983;DHT22;44771;49.982;8.560;2023-11-19T04:33:26;8.60;99.90
58983;DHT22;44771;49.982;8.560;2023-11-19T04:38:28;8.60;99.90
58983;DHT22;44771;49.982;8.560;2023-11-19T04:43:30;8.60;99.90
58983;DHT22;44771;49.982;8.560;2023-11-19T04:48:34;8.70;99.90
58983;DHT22;44771;49.982;8.560;2023-11-19T04:53:39;8.70;99.90
58983;DHT22;44771;49.982;8.560;2023-11-19T04:58:41;8.70;99.90
58983;DHT22;44771;49.982;8.560;2023-11-19T05:03:44;8.70;99.90
58983;DHT22;44771;49.982;8.560;2023-11-19T05:08:46;8.80;99.90
58983;DHT22;44771;49.982;8.560;2023-11-19T05:13:51;8.80;99.90
58983;DHT22;44771;49.982;8.560;2023-11-19T05:18:54;8.90;99.90
58983;DHT22;44771;49.982;8.560;2023-11-19T05:23:56;8.90;99.90
58983;DHT22;44771;49.982;8.560;2023-11-19T05:28:57;8.90;99.90
58983;DHT22;44771;49.982;8.560;2023-11-19T05:34:01;8.80;99.90
58983;DHT22;44771;49.982;8.560;2023-11-19T05:39:03;8.90;99.90
58983;DHT22;44771;49.982;8.560;2023-11-19T05:44:05;8.90;99.90
58983;DHT22;44771;49.982;8.560;2023-11-19T05:49:11;8.90;99.90
58983;DHT22;44771;49.982;8.560;2023-11-19T05:54:18;9.00;99.90
58983;DHT22;44771;49.982;8.560;2023-11-19T05:59:20;9.00;99.90
58983;DHT22;44771;49.982;8.560;2023-11-19T06:04:23;9.00;99.90
58983;DHT22;44771;49.982;8.560;2023-11-19T06:09:25;9.10;99.90
58983;DHT22;44771;49.982;8.560;2023-11-19T06:14:27;9.10;99.90
58983;DHT22;44771;49.982;8.560;2023-11-19T06:19:30;9.10;99.90
58983;DHT22;44771;49.982;8.560;2023-11-19T06:24:32;9.20;99.90
58983;DHT22;44771;49.982;8.560;2023-11-19T06:29:34;9.20;99.90
58983;DHT22;44771;49.982;8.560;2023-11-19T06:34:37;9.30;99.90
58983;DHT22;44771;49.982;8.560;2023-11-19T06:39:39;9.30;99.90
58983;DHT22;44771;49.982;8.560;2023-11-19T06:44:41;9.30;99.90
58983;DHT22;44771;49.982;8.560;2023-11-19T06:49:47;9.40;99.90
58983;DHT22;44771;49.982;8.560;2023-11-19T06:54:49;9.30;99.90
58983;DHT22;44771;49.982;8.560;2023-11-19T06:59:50;9.40;99.90
58983;DHT22;44771;49.982;8.560;2023-11-19T07:04:56;9.50;99.90
58983;DHT22;44771;49.982;8.560;2023-11-19T07:09:58;9.50;99.90
58983;DHT22;44771;49.982;8.560;2023-11-19T07:15:00;9.50;99.90
58983;DHT22;44771;49.982;8.560;2023-11-19T07:20:04;9.60;99.90
58983;DHT22;44771;49.982;8.560;2023-11-19T07:25:06;9.70;99.90
58983;DHT22;44771;49.982;8.560;2023-11-19T07:30:09;9.90;99.90
58983;DHT22;44771;49.982;8.560;2023-11-19T07:35:12;9.90;99.90
58983;DHT22;44771;49.982;8.560;2023-11-19T07:40:14;9.90;99.90
58983;DHT22;44771;49.982;8.560;2023-11-19T07:45:16;9.90;99.90
58983;DHT22;44771;49.982;8.560;2023-11-19T07:50:19;9.80;99.90
58983;DHT22;44771;49.982;8.560;2023-11-19T07:55:21;9.80;99.90
58983;DHT22;44771;49.982;8.560;2023-11-19T08:00:23;9.90;99.90
58983;DHT22;44771;49.982;8.560;2023-11-19T08:05:26;9.90;99.90
58983;DHT22;44771;49.982;8.560;2023-11-19T08:10:28;9.90;99.90
58983;DHT22;44771;49.982;8.560;2023-11-19T08:15:29;10.10;99.90
58983;DHT22;44771;49.982;8.560;2023-11-19T08:20:34;10.20;99.90
58983;DHT22;44771;49.982;8.560;2023-11-19T08:25:36;10.30;99.90
58983;DHT22;44771;49.982;8.560;2023-11-19T08:30:38;10.30;99.90
58983;DHT22;44771;49.982;8.560;2023-11-19T08:35:43;10.40;99.90
58983;DHT22;44771;49.982;8.560;2023-11-19T08:40:44;10.60;99.90
58983;DHT22;44771;49.982;8.560;2023-11-19T08:45:49;10.60;99.90
58983;DHT22;44771;49.982;8.560;2023-11-19T08:50:52;10.70;99.90
58983;DHT22;44771;49.982;8.560;2023-11-19T08:55:54;10.80;99.90
58983;DHT22;44771;49.982;8.560;2023-11-19T09:00:56;10.90;99.90
58983;DHT22;44771;49.982;8.560;2023-11-19T09:06:00;11.00;99.90
58983;DHT22;44771;49.982;8.560;2023-11-19T09:11:06;11.00;99.90
58983;DHT22;44771;49.982;8.560;2023-11-19T09:16:08;11.00;99.90
58983;DHT22;44771;49.982;8.560;2023-11-19T09:21:14;11.00;99.90
58983;DHT22;44771;49.982;8.560;2023-11-19T09:26:16;11.10;99.90
58983;DHT22;44771;49.982;8.560;2023-11-19T09:31:18;11.30;99.90
58983;DHT22;44771;49.982;8.560;2023-11-19T09:36:22;11.50;99.90
58983;DHT22;44771;49.982;8.560;2023-11-19T09:41:24;11.70;99.90
58983;DHT22;44771;49.982;8.560;2023-11-19T09:46:26;11.90;99.90
58983;DHT22;44771;49.982;8.560;2023-11-19T09:51:30;12.10;99.90
58983;DHT22;44771;49.982;8.560;2023-11-19T09:56:33;12.30;99.90
58983;DHT22;44771;49.982;8.560;2023-11-19T10:01:37;12.60;99.90
58983;DHT22;44771;49.982;8.560;2023-11-19T10:06:41;12.80;99.90
58983;DHT22;44771;49.982;8.560;2023-11-19T10:11:43;12.90;99.90
58983;DHT22;44771;49.982;8.560;2023-11-19T10:16:45;13.10;99.90
58983;DHT22;44771;49.982;8.560;2023-11-19T10:21:48;13.10;99.90
58983;DHT22;44771;49.982;8.560;2023-11-19T10:26:50;13.10;99.90
58983;DHT22;44771;49.982;8.560;2023-11-19T10:31:56;13.20;99.90
58983;DHT22;44771;49.982;8.560;2023-11-19T10:36:59;13.30;99.90
58983;DHT22;44771;49.982;8.560;2023-11-19T10:42:15;13.20;99.90
58983;DHT22;44771;49.982;8.560;2023-11-19T10:47:19;13.00;99.90
58983;DHT22;44771;49.982;8.560;2023-11-19T10:52:39;13.00;99.90
58983;DHT22;44771;49.982;8.560;2023-11-19T10:57:43;12.80;99.90
58983;DHT22;44771;49.982;8.560;2023-11-19T11:02:50;12.60;99.90
58983;DHT22;44771;49.982;8.560;2023-11-19T11:07:58;12.50;99.90
58983;DHT22;44771;49.982;8.560;2023-11-19T11:12:59;12.60;99.90
58983;DHT22;44771;49.982;8.560;2023-11-19T11:18:05;12.80;99.90
58983;DHT22;44771;49.982;8.560;2023-11-19T11:23:35;12.90;99.90
58983;DHT22;44771;49.982;8.560;2023-11-19T11:28:41;13.00;99.90
58983;DHT22;44771;49.982;8.560;2023-11-19T11:34:03;13.00;99.90
58983;DHT22;44771;49.982;8.560;2023-11-19T11:39:09;12.90;99.90
58983;DHT22;44771;49.982;8.560;2023-11-19T11:44:11;12.80;99.90
58983;DHT22;44771;49.982;8.560;2023-11-19T11:49:13;13.00;99.90
58983;DHT22;44771;49.982;8.560;2023-11-19T11:54:27;13.40;99.90
58983;DHT22;44771;49.982;8.560;2023-11-19T11:59:36;13.90;99.90
58983;DHT22;44771;49.982;8.560;2023-11-19T12:04:39;14.40;99.90
58983;DHT22;44771;49.982;8.560;2023-11-19T12:09:51;14.80;99.90
58983;DHT22;44771;49.982;8.560;2023-11-19T12:15:07;15.10;99.90
58983;DHT22;44771;49.982;8.560;2023-11-19T12:20:09;15.40;99.90
58983;DHT22;44771;49.982;8.560;2023-11-19T12:25:13;15.80;99.90
58983;DHT22;44771;49.982;8.560;2023-11-19T12:30:17;15.80;99.90
58983;DHT22;44771;49.982;8.560;2023-11-19T12:35:19;15.40;99.90
58983;DHT22;44771;49.982;8.560;2023-11-19T12:40:24;15.40;99.90
58983;DHT22;44771;49.982;8.560;2023-11-19T12:45:34;15.30;99.90
58983;DHT22;44771;49.982;8.560;2023-11-19T12:50:51;15.20;99.90
58983;DHT22;44771;49.982;8.560;2023-11-19T12:55:55;15.10;99.90
58983;DHT22;44771;49.982;8.560;2023-11-19T13:01:00;15.10;99.90
58983;DHT22;44771;49.982;8.560;2023-11-19T13:06:03;15.10;99.90
58983;DHT22;44771;49.982;8.560;2023-11-19T13:11:07;15.00;99.90
58983;DHT22;44771;49.982;8.560;2023-11-19T13:16:09;14.90;98.30
58983;DHT22;44771;49.982;8.560;2023-11-19T13:21:11;14.90;99.60
58983;DHT22;44771;49.982;8.560;2023-11-19T13:26:15;15.00;98.70
58983;DHT22;44771;49.982;8.560;2023-11-19T13:31:18;14.90;98.10
58983;DHT22;44771;49.982;8.560;2023-11-19T13:36:20;14.90;97.80
58983;DHT22;44771;49.982;8.560;2023-11-19T13:41:23;15.00;97.60
58983;DHT22;44771;49.982;8.560;2023-11-19T13:46:25;14.90;97.60
58983;DHT22;44771;49.982;8.560;2023-11-19T13:51:27;14.80;99.20
58983;DHT22;44771;49.982;8.560;2023-11-19T13:56:30;14.80;98.60
58983;DHT22;44771;49.982;8.560;2023-11-19T14:01:32;14.50;98.20
58983;DHT22;44771;49.982;8.560;2023-11-19T14:06:34;14.40;98.00
58983;DHT22;44771;49.982;8.560;2023-11-19T14:11:37;14.30;97.90
58983;DHT22;44771;49.982;8.560;2023-11-19T14:16:39;14.10;99.20
58983;DHT22;44771;49.982;8.560;2023-11-19T14:21:41;13.80;98.50
58983;DHT22;44771;49.982;8.560;2023-11-19T14:26:45;13.50;99.90
58983;DHT22;44771;49.982;8.560;2023-11-19T14:31:50;13.40;99.90
58983;DHT22;44771;49.982;8.560;2023-11-19T14:36:52;13.40;99.90
58983;DHT22;44771;49.982;8.560;2023-11-19T14:41:55;13.30;99.90
58983;DHT22;44771;49.982;8.560;2023-11-19T14:46:57;13.30;99.90
58983;DHT22;44771;49.982;8.560;2023-11-19T14:51:59;13.40;98.40
58983;DHT22;44771;49.982;8.560;2023-11-19T14:57:06;13.50;99.10
58983;DHT22;44771;49.982;8.560;2023-11-19T15:02:08;13.40;98.10
58983;DHT22;44771;49.982;8.560;2023-11-19T15:07:10;13.30;98.30
58983;DHT22;44771;49.982;8.560;2023-11-19T15:12:13;13.20;98.70
58983;DHT22;44771;49.982;8.560;2023-11-19T15:17:15;13.10;99.20
58983;DHT22;44771;49.982;8.560;2023-11-19T15:22:17;12.90;99.90
58983;DHT22;44771;49.982;8.560;2023-11-19T15:27:20;12.70;99.90
58983;DHT22;44771;49.982;8.560;2023-11-19T15:32:22;12.70;99.70
58983;DHT22;44771;49.982;8.560;2023-11-19T15:37:24;12.70;99.90
58983;DHT22;44771;49.982;8.560;2023-11-19T15:42:27;12.70;99.90
58983;DHT22;44771;49.982;8.560;2023-11-19T15:47:29;12.40;99.90
58983;DHT22;44771;49.982;8.560;2023-11-19T15:52:31;12.20;99.90
58983;DHT22;44771;49.982;8.560;2023-11-19T15:57:34;12.00;99.90
58983;DHT22;44771;49.982;8.560;2023-11-19T16:02:36;11.60;99.90
58983;DHT22;44771;49.982;8.560;2023-11-19T16:07:38;11.40;99.90
58983;DHT22;44771;49.982;8.560;2023-11-19T16:12:41;11.20;99.90
58983;DHT22;44771;49.982;8.560;2023-11-19T16:17:43;10.90;99.90
58983;DHT22;44771;49.982;8.560;2023-11-19T16:22:44;10.90;99.90
58983;DHT22;44771;49.982;8.560;2023-11-19T16:27:48;11.10;99.90
58983;DHT22;44771;49.982;8.560;2023-11-19T16:32:52;11.10;99.90
58983;DHT22;44771;49.982;8.560;2023-11-19T16:37:54;11.00;99.90
58983;DHT22;44771;49.982;8.560;2023-11-19T16:42:57;10.90;99.90
58983;DHT22;44771;49.982;8.560;2023-11-19T16:47:59;10.90;99.90
58983;DHT22;44771;49.982;8.560;2023-11-19T16:53:01;11.00;99.90
58983;DHT22;44771;49.982;8.560;2023-11-19T16:58:04;11.00;99.90
58983;DHT22;44771;49.982;8.560;2023-11-19T17:03:08;11.00;99.90
58983;DHT22;44771;49.982;8.560;2023-11-19T17:08:10;11.20;99.90
58983;DHT22;44771;49.982;8.560;2023-11-19T17:13:13;11.30;99.90
58983;DHT22;44771;49.982;8.560;2023-11-19T17:18:15;11.60;99.90
58983;DHT22;44771;49.982;8.560;2023-11-19T17:23:17;11.70;99.90
58983;DHT22;44771;49.982;8.560;2023-11-19T17:28:20;11.60;99.90
58983;DHT22;44771;49.982;8.560;2023-11-19T17:33:22;11.40;99.90
58983;DHT22;44771;49.982;8.560;2023-11-19T17:38:24;11.30;99.90
58983;DHT22;44771;49.982;8.560;2023-11-19T17:43:29;11.20;99.90
58983;DHT22;44771;49.982;8.560;2023-11-19T17:48:31;11.00;99.90
58983;DHT22;44771;49.982;8.560;2023-11-19T17:53:33;11.00;99.90
58983;DHT22;44771;49.982;8.560;2023-11-19T17:58:36;11.00;99.90
58983;DHT22;44771;49.982;8.560;2023-11-19T18:03:38;10.80;99.90
58983;DHT22;44771;49.982;8.560;2023-11-19T18:08:40;10.80;99.90
58983;DHT22;44771;49.982;8.560;2023-11-19T18:13:44;10.70;99.90
58983;DHT22;44771;49.982;8.560;2023-11-19T18:18:46;10.50;99.90
58983;DHT22;44771;49.982;8.560;2023-11-19T18:23:51;10.40;99.90
58983;DHT22;44771;49.982;8.560;2023-11-19T18:28:54;10.50;99.90
58983;DHT22;44771;49.982;8.560;2023-11-19T18:33:56;10.60;99.90
58983;DHT22;44771;49.982;8.560;2023-11-19T18:38:58;10.50;99.90
58983;DHT22;44771;49.982;8.560;2023-11-19T18:44:01;10.40;99.90
58983;DHT22;44771;49.982;8.560;2023-11-19T18:49:03;10.30;99.90
58983;DHT22;44771;49.982;8.560;2023-11-19T18:54:08;10.10;99.90
58983;DHT22;44771;49.982;8.560;2023-11-19T18:59:11;10.10;99.90
58983;DHT22;44771;49.982;8.560;2023-11-19T19:04:13;10.10;99.90
58983;DHT22;44771;49.982;8.560;2023-11-19T19:09:15;10.00;99.90
58983;DHT22;44771;49.982;8.560;2023-11-19T19:14:18;9.90;99.90
58983;DHT22;44771;49.982;8.560;2023-11-19T19:19:20;10.00;99.90
58983;DHT22;44771;49.982;8.560;2023-11-19T19:24:22;10.10;99.90
58983;DHT22;44771;49.982;8.560;2023-11-19T19:29:25;10.30;99.90
58983;DHT22;44771;49.982;8.560;2023-11-19T19:34:27;10.30;99.90
58983;DHT22;44771;49.982;8.560;2023-11-19T19:39:29;10.50;99.90
58983;DHT22;44771;49.982;8.560;2023-11-19T19:44:32;10.60;99.90
58983;DHT22;44771;49.982;8.560;2023-11-19T19:49:34;10.80;99.90
58983;DHT22;44771;49.982;8.560;2023-11-19T19:54:36;10.90;99.90
58983;DHT22;44771;49.982;8.560;2023-11-19T19:59:39;11.00;99.90
58983;DHT22;44771;49.982;8.560;2023-11-19T20:04:44;11.10;99.90
58983;DHT22;44771;49.982;8.560;2023-11-19T20:09:51;11.20;99.90
58983;DHT22;44771;49.982;8.560;2023-11-19T20:14:54;11.40;99.90
58983;DHT22;44771;49.982;8.560;2023-11-19T20:19:56;11.40;99.90
58983;DHT22;44771;49.982;8.560;2023-11-19T20:24:57;11.40;99.90
58983;DHT22;44771;49.982;8.560;2023-11-19T20:30:00;11.30;99.90
58983;DHT22;44771;49.982;8.560;2023-11-19T20:35:03;11.30;99.90
58983;DHT22;44771;49.982;8.560;2023-11-19T20:40:06;11.30;99.90
58983;DHT22;44771;49.982;8.560;2023-11-19T20:45:09;11.30;99.90
58983;DHT22;44771;49.982;8.560;2023-11-19T20:50:11;11.40;99.90
58983;DHT22;44771;49.982;8.560;2023-11-19T20:55:13;11.40;99.90
58983;DHT22;44771;49.982;8.560;2023-11-19T21:00:17;11.40;99.90
58983;DHT22;44771;49.982;8.560;2023-11-19T21:05:19;11.30;99.90
58983;DHT22;44771;49.982;8.560;2023-11-19T21:10:21;11.40;99.90
58983;DHT22;44771;49.982;8.560;2023-11-19T21:15:24;11.40;99.90
58983;DHT22;44771;49.982;8.560;2023-11-19T21:20:26;11.40;99.90
58983;DHT22;44771;49.982;8.560;2023-11-19T21:25:28;11.40;99.90
58983;DHT22;44771;49.982;8.560;2023-11-19T21:30:31;11.30;99.90
58983;DHT22;44771;49.982;8.560;2023-11-19T21:35:33;11.40;99.90
58983;DHT22;44771;49.982;8.560;2023-11-19T21:40:35;11.40;99.90
58983;DHT22;44771;49.982;8.560;2023-11-19T21:45:39;11.30;99.90
58983;DHT22;44771;49.982;8.560;2023-11-19T21:50:40;11.40;99.90
58983;DHT22;44771;49.982;8.560;2023-11-19T21:55:44;11.40;99.90
58983;DHT22;44771;49.982;8.560;2023-11-19T22:00:47;11.50;99.90
58983;DHT22;44771;49.982;8.560;2023-11-19T22:05:49;11.50;99.90
58983;DHT22;44771;49.982;8.560;2023-11-19T22:10:51;11.60;99.90
58983;DHT22;44771;49.982;8.560;2023-11-19T22:15:54;11.60;99.90
58983;DHT22;44771;49.982;8.560;2023-11-19T22:20:56;11.60;99.90
58983;DHT22;44771;49.982;8.560;2023-11-19T22:26:00;11.60;99.90
58983;DHT22;44771;49.982;8.560;2023-11-19T22:31:03;11.70;99.90
58983;DHT22;44771;49.982;8.560;2023-11-19T22:36:06;11.70;99.90
58983;DHT22;44771;49.982;8.560;2023-11-19T22:41:09;11.70;99.90
58983;DHT22;44771;49.982;8.560;2023-11-19T22:46:14;11.60;99.90
58983;DHT22;44771;49.982;8.560;2023-11-19T22:51:17;11.70;99.90
58983;DHT22;44771;49.982;8.560;2023-11-19T22:56:18;11.60;99.90
58983;DHT22;44771;49.982;8.560;2023-11-19T23:01:22;11.70;99.90
58983;DHT22;44771;49.982;8.560;2023-11-19T23:06:24;11.70;99.90
58983;DHT22;44771;49.982;8.560;2023-11-19T23:11:25;11.70;99.90
58983;DHT22;44771;49.982;8.560;2023-11-19T23:16:29;11.60;99.90
58983;DHT22;44771;49.982;8.560;2023-11-19T23:21:30;11.60;99.90
58983;DHT22;44771;49.982;8.560;2023-11-19T23:26:32;11.60;99.90
58983;DHT22;44771;49.982;8.560;2023-11-19T23:31:35;11.60;99.90
58983;DHT22;44771;49.982;8.560;2023-11-19T23:36:37;11.70;99.90
58983;DHT22;44771;49.982;8.560;2023-11-19T23:41:39;11.70;99.90
58983;DHT22;44771;49.982;8.560;2023-11-19T23:46:44;11.70;99.90
58983;DHT22;44771;49.982;8.560;2023-11-19T23:51:49;11.70;99.90
58983;DHT22;44771;49.982;8.560;2023-11-19T23:56:51;11.70;99.90
